sensor_id;sensor_type;location;lat;lon;timestamp;temperature;humidity
11934;DHT22;6026;48.784;9.198;2023-02-01T00:01:23;3.80;99.90
11934;DHT22;6026;48.784;9.198;2023-02-01T00:03:49;3.80;99.90
11934;DHT22;6026;48.784;9.198;2023-02-01T00:06:15;3.80;99.90
11934;DHT22;6026;48.784;9.198;2023-02-01T00:08:40;3.80;99.90
11934;DHT22;6026;48.784;9.198;2023-02-01T00:11:08;3.80;99.90
11934;DHT22;6026;48.784;9.198;2023-02-01T00:13:36;3.80;99.90
11934;DHT22;6026;48.784;9.198;2023-02-01T00:16:06;3.80;99.90
11934;DHT22;6026;48.784;9.198;2023-02-01T00:18:33;3.80;99.90
11934;DHT22;6026;48.784;9.198;2023-02-01T00:20:58;3.80;99.90
11934;DHT22;6026;48.784;9.198;2023-02-01T00:23:24;3.80;99.90
11934;DHT22;6026;48.784;9.198;2023-02-01T00:25:50;3.80;99.90
11934;DHT22;6026;48.784;9.198;2023-02-01T00:28:16;3.80;99.90
11934;DHT22;6026;48.784;9.198;2023-02-01T00:30:41;3.80;99.90
11934;DHT22;6026;48.784;9.198;2023-02-01T00:33:07;3.80;99.90
11934;DHT22;6026;48.784;9.198;2023-02-01T00:35:34;3.80;99.90
11934;DHT22;6026;48.784;9.198;2023-02-01T00:38:00;3.80;99.90
11934;DHT22;6026;48.784;9.198;2023-02-01T00:40:25;3.80;99.90
11934;DHT22;6026;48.784;9.198;2023-02-01T00:42:51;3.80;99.90
11934;DHT22;6026;48.784;9.198;2023-02-01T00:45:17;3.80;99.90
11934;DHT22;6026;48.784;9.198;2023-02-01T00:47:43;3.80;99.90
11934;DHT22;6026;48.784;9.198;2023-02-01T00:50:09;3.80;99.90
11934;DHT22;6026;48.784;9.198;2023-02-01T00:52:35;3.80;99.90
11934;DHT22;6026;48.784;9.198;2023-02-01T00:55:00;3.80;99.90
11934;DHT22;6026;48.784;9.198;2023-02-01T00:57:26;3.80;99.90
11934;DHT22;6026;48.784;9.198;2023-02-01T00:59:51;3.80;99.90
11934;DHT22;6026;48.784;9.198;2023-02-01T01:02:17;3.90;99.90
11934;DHT22;6026;48.784;9.198;2023-02-01T01:04:43;3.90;99.90
11934;DHT22;6026;48.784;9.198;2023-02-01T01:07:08;3.90;99.90
11934;DHT22;6026;48.784;9.198;2023-02-01T01:09:34;3.90;99.90
11934;DHT22;6026;48.784;9.198;2023-02-01T01:12:00;3.90;99.90
11934;DHT22;6026;48.784;9.198;2023-02-01T01:14:28;3.90;99.90
11934;DHT22;6026;48.784;9.198;2023-02-01T01:16:54;3.90;99.90
11934;DHT22;6026;48.784;9.198;2023-02-01T01:19:20;3.90;99.90
11934;DHT22;6026;48.784;9.198;2023-02-01T01:21:45;3.90;99.90
11934;DHT22;6026;48.784;9.198;2023-02-01T01:24:11;3.90;99.90
11934;DHT22;6026;48.784;9.198;2023-02-01T01:26:37;3.90;99.90
11934;DHT22;6026;48.784;9.198;2023-02-01T01:29:02;3.90;99.90
11934;DHT22;6026;48.784;9.198;2023-02-01T01:31:29;3.90;99.90
11934;DHT22;6026;48.784;9.198;2023-02-01T01:33:57;3.90;99.90
11934;DHT22;6026;48.784;9.198;2023-02-01T01:36:23;3.90;99.90
11934;DHT22;6026;48.784;9.198;2023-02-01T01:38:49;3.90;99.90
11934;DHT22;6026;48.784;9.198;2023-02-01T01:41:18;3.90;99.90
11934;DHT22;6026;48.784;9.198;2023-02-01T01:43:56;3.90;99.90
11934;DHT22;6026;48.784;9.198;2023-02-01T01:46:31;4.00;99.90
11934;DHT22;6026;48.784;9.198;2023-02-01T01:49:13;3.90;99.90
11934;DHT22;6026;48.784;9.198;2023-02-01T01:51:43;3.90;99.90
11934;DHT22;6026;48.784;9.198;2023-02-01T01:54:17;4.00;99.90
11934;DHT22;6026;48.784;9.198;2023-02-01T01:56:46;3.90;99.90
11934;DHT22;6026;48.784;9.198;2023-02-01T01:59:14;3.90;99.90
11934;DHT22;6026;48.784;9.198;2023-02-01T02:01:40;3.90;99.90
11934;DHT22;6026;48.784;9.198;2023-02-01T02:04:05;3.90;99.90
11934;DHT22;6026;48.784;9.198;2023-02-01T02:06:41;4.00;99.90
11934;DHT22;6026;48.784;9.198;2023-02-01T02:09:10;3.90;99.90
11934;DHT22;6026;48.784;9.198;2023-02-01T02:11:36;4.00;99.90
11934;DHT22;6026;48.784;9.198;2023-02-01T02:14:03;4.00;99.90
11934;DHT22;6026;48.784;9.198;2023-02-01T02:19:05;4.00;99.90
11934;DHT22;6026;48.784;9.198;2023-02-01T02:27:19;4.00;99.90
11934;DHT22;6026;48.784;9.198;2023-02-01T02:40:46;4.00;99.90
11934;DHT22;6026;48.784;9.198;2023-02-01T02:43:22;4.00;99.90
11934;DHT22;6026;48.784;9.198;2023-02-01T02:46:22;4.00;99.90
11934;DHT22;6026;48.784;9.198;2023-02-01T02:49:12;4.00;99.90
11934;DHT22;6026;48.784;9.198;2023-02-01T02:51:50;4.10;99.90
11934;DHT22;6026;48.784;9.198;2023-02-01T02:54:40;4.10;99.90
11934;DHT22;6026;48.784;9.198;2023-02-01T02:57:17;4.10;99.90
11934;DHT22;6026;48.784;9.198;2023-02-01T03:00:07;4.10;99.90
11934;DHT22;6026;48.784;9.198;2023-02-01T03:02:52;4.10;99.90
11934;DHT22;6026;48.784;9.198;2023-02-01T03:05:41;4.10;99.90
11934;DHT22;6026;48.784;9.198;2023-02-01T03:08:15;4.10;99.90
11934;DHT22;6026;48.784;9.198;2023-02-01T03:15:59;4.00;99.90
11934;DHT22;6026;48.784;9.198;2023-02-01T03:18:35;4.00;99.90
11934;DHT22;6026;48.784;9.198;2023-02-01T03:21:08;4.00;99.90
11934;DHT22;6026;48.784;9.198;2023-02-01T03:23:36;4.10;99.90
11934;DHT22;6026;48.784;9.198;2023-02-01T03:26:06;4.00;99.90
11934;DHT22;6026;48.784;9.198;2023-02-01T03:28:33;4.10;99.90
11934;DHT22;6026;48.784;9.198;2023-02-01T03:31:01;4.10;99.90
11934;DHT22;6026;48.784;9.198;2023-02-01T03:33:28;4.10;99.90
11934;DHT22;6026;48.784;9.198;2023-02-01T03:39:00;4.00;99.90
11934;DHT22;6026;48.784;9.198;2023-02-01T03:41:40;4.00;99.90
11934;DHT22;6026;48.784;9.198;2023-02-01T03:44:38;4.10;99.90
11934;DHT22;6026;48.784;9.198;2023-02-01T03:47:08;4.10;99.90
11934;DHT22;6026;48.784;9.198;2023-02-01T03:49:39;4.10;99.90
11934;DHT22;6026;48.784;9.198;2023-02-01T03:52:10;4.20;99.90
11934;DHT22;6026;48.784;9.198;2023-02-01T03:54:37;4.20;99.90
11934;DHT22;6026;48.784;9.198;2023-02-01T03:57:08;4.20;99.90
11934;DHT22;6026;48.784;9.198;2023-02-01T03:59:39;4.30;99.90
11934;DHT22;6026;48.784;9.198;2023-02-01T04:02:05;4.30;99.90
11934;DHT22;6026;48.784;9.198;2023-02-01T04:04:30;4.30;99.90
11934;DHT22;6026;48.784;9.198;2023-02-01T04:06:56;4.20;99.90
11934;DHT22;6026;48.784;9.198;2023-02-01T04:09:21;4.20;99.90
11934;DHT22;6026;48.784;9.198;2023-02-01T04:11:47;4.10;99.90
11934;DHT22;6026;48.784;9.198;2023-02-01T04:14:13;4.10;99.90
11934;DHT22;6026;48.784;9.198;2023-02-01T04:16:38;4.10;99.90
11934;DHT22;6026;48.784;9.198;2023-02-01T04:19:04;4.10;99.90
11934;DHT22;6026;48.784;9.198;2023-02-01T04:21:29;4.10;99.90
11934;DHT22;6026;48.784;9.198;2023-02-01T04:23:55;4.20;99.90
11934;DHT22;6026;48.784;9.198;2023-02-01T04:26:21;4.20;99.90
11934;DHT22;6026;48.784;9.198;2023-02-01T04:28:47;4.20;99.90
11934;DHT22;6026;48.784;9.198;2023-02-01T04:31:17;4.20;99.90
11934;DHT22;6026;48.784;9.198;2023-02-01T04:33:43;4.20;99.90
11934;DHT22;6026;48.784;9.198;2023-02-01T04:36:09;4.10;99.90
11934;DHT22;6026;48.784;9.198;2023-02-01T04:38:34;4.10;99.90
11934;DHT22;6026;48.784;9.198;2023-02-01T04:41:00;4.10;99.90
11934;DHT22;6026;48.784;9.198;2023-02-01T04:43:26;4.00;99.90
11934;DHT22;6026;48.784;9.198;2023-02-01T04:45:52;4.10;99.90
11934;DHT22;6026;48.784;9.198;2023-02-01T04:48:19;4.10;99.90
11934;DHT22;6026;48.784;9.198;2023-02-01T04:50:46;4.10;99.90
11934;DHT22;6026;48.784;9.198;2023-02-01T04:53:14;4.10;99.90
11934;DHT22;6026;48.784;9.198;2023-02-01T04:55:40;4.20;99.90
11934;DHT22;6026;48.784;9.198;2023-02-01T04:58:06;4.10;99.90
11934;DHT22;6026;48.784;9.198;2023-02-01T05:00:31;4.20;99.90
11934;DHT22;6026;48.784;9.198;2023-02-01T05:02:57;4.20;99.90
11934;DHT22;6026;48.784;9.198;2023-02-01T05:05:23;4.20;99.90
11934;DHT22;6026;48.784;9.198;2023-02-01T05:07:48;4.10;99.90
11934;DHT22;6026;48.784;9.198;2023-02-01T05:10:14;4.20;99.90
11934;DHT22;6026;48.784;9.198;2023-02-01T05:12:39;4.20;99.90
11934;DHT22;6026;48.784;9.198;2023-02-01T05:15:23;4.20;99.90
11934;DHT22;6026;48.784;9.198;2023-02-01T05:17:49;4.20;99.90
11934;DHT22;6026;48.784;9.198;2023-02-01T05:20:14;4.30;99.90
11934;DHT22;6026;48.784;9.198;2023-02-01T05:22:41;4.30;99.90
11934;DHT22;6026;48.784;9.198;2023-02-01T05:25:08;4.30;99.90
11934;DHT22;6026;48.784;9.198;2023-02-01T05:27:34;4.30;99.90
11934;DHT22;6026;48.784;9.198;2023-02-01T05:29:59;4.30;99.90
11934;DHT22;6026;48.784;9.198;2023-02-01T05:32:25;4.30;99.90
11934;DHT22;6026;48.784;9.198;2023-02-01T05:34:50;4.40;99.90
11934;DHT22;6026;48.784;9.198;2023-02-01T05:37:16;4.40;99.90
11934;DHT22;6026;48.784;9.198;2023-02-01T05:39:41;4.40;99.90
11934;DHT22;6026;48.784;9.198;2023-02-01T05:42:07;4.40;99.90
11934;DHT22;6026;48.784;9.198;2023-02-01T05:44:32;4.40;99.90
11934;DHT22;6026;48.784;9.198;2023-02-01T05:46:58;4.40;99.90
11934;DHT22;6026;48.784;9.198;2023-02-01T05:49:23;4.40;99.90
11934;DHT22;6026;48.784;9.198;2023-02-01T05:51:49;4.40;99.90
11934;DHT22;6026;48.784;9.198;2023-02-01T05:54:15;4.40;99.90
11934;DHT22;6026;48.784;9.198;2023-02-01T05:56:40;4.50;99.90
11934;DHT22;6026;48.784;9.198;2023-02-01T05:59:06;4.40;99.90
11934;DHT22;6026;48.784;9.198;2023-02-01T06:01:32;4.40;99.90
11934;DHT22;6026;48.784;9.198;2023-02-01T06:03:57;4.30;99.90
11934;DHT22;6026;48.784;9.198;2023-02-01T06:06:23;4.20;99.90
11934;DHT22;6026;48.784;9.198;2023-02-01T06:08:48;4.10;99.90
11934;DHT22;6026;48.784;9.198;2023-02-01T06:11:14;4.00;99.90
11934;DHT22;6026;48.784;9.198;2023-02-01T06:13:39;4.00;99.90
11934;DHT22;6026;48.784;9.198;2023-02-01T06:16:05;3.90;99.90
11934;DHT22;6026;48.784;9.198;2023-02-01T06:18:33;3.90;99.90
11934;DHT22;6026;48.784;9.198;2023-02-01T06:21:00;3.80;99.90
11934;DHT22;6026;48.784;9.198;2023-02-01T06:23:26;3.80;99.90
11934;DHT22;6026;48.784;9.198;2023-02-01T06:25:52;3.80;99.90
11934;DHT22;6026;48.784;9.198;2023-02-01T06:28:18;3.90;99.90
11934;DHT22;6026;48.784;9.198;2023-02-01T06:30:44;3.90;99.90
11934;DHT22;6026;48.784;9.198;2023-02-01T06:33:12;3.90;99.90
11934;DHT22;6026;48.784;9.198;2023-02-01T06:35:40;3.90;99.90
11934;DHT22;6026;48.784;9.198;2023-02-01T06:38:07;3.90;99.90
11934;DHT22;6026;48.784;9.198;2023-02-01T06:40:33;3.90;99.90
11934;DHT22;6026;48.784;9.198;2023-02-01T06:42:58;3.90;99.90
11934;DHT22;6026;48.784;9.198;2023-02-01T06:45:24;3.90;99.90
11934;DHT22;6026;48.784;9.198;2023-02-01T06:47:50;3.90;99.90
11934;DHT22;6026;48.784;9.198;2023-02-01T06:50:16;4.00;99.90
11934;DHT22;6026;48.784;9.198;2023-02-01T06:52:41;4.00;99.90
11934;DHT22;6026;48.784;9.198;2023-02-01T06:55:07;4.00;99.90
11934;DHT22;6026;48.784;9.198;2023-02-01T06:57:33;4.00;99.90
11934;DHT22;6026;48.784;9.198;2023-02-01T06:59:59;4.10;99.90
11934;DHT22;6026;48.784;9.198;2023-02-01T07:02:25;4.10;99.90
11934;DHT22;6026;48.784;9.198;2023-02-01T07:04:50;4.20;99.90
11934;DHT22;6026;48.784;9.198;2023-02-01T07:07:16;4.20;99.90
11934;DHT22;6026;48.784;9.198;2023-02-01T07:09:42;4.30;99.90
11934;DHT22;6026;48.784;9.198;2023-02-01T07:12:07;4.30;99.90
11934;DHT22;6026;48.784;9.198;2023-02-01T07:14:33;4.30;99.90
11934;DHT22;6026;48.784;9.198;2023-02-01T07:16:59;4.40;99.90
11934;DHT22;6026;48.784;9.198;2023-02-01T07:19:24;4.40;99.90
11934;DHT22;6026;48.784;9.198;2023-02-01T07:21:50;4.50;99.90
11934;DHT22;6026;48.784;9.198;2023-02-01T07:24:15;4.60;99.90
11934;DHT22;6026;48.784;9.198;2023-02-01T07:26:41;4.70;99.90
11934;DHT22;6026;48.784;9.198;2023-02-01T07:29:06;5.00;99.90
11934;DHT22;6026;48.784;9.198;2023-02-01T07:31:32;5.00;99.90
11934;DHT22;6026;48.784;9.198;2023-02-01T07:33:57;5.10;99.90
11934;DHT22;6026;48.784;9.198;2023-02-01T07:36:24;5.20;99.90
11934;DHT22;6026;48.784;9.198;2023-02-01T07:38:50;5.20;99.90
11934;DHT22;6026;48.784;9.198;2023-02-01T07:41:17;5.30;99.90
11934;DHT22;6026;48.784;9.198;2023-02-01T07:43:43;5.30;99.90
11934;DHT22;6026;48.784;9.198;2023-02-01T07:46:09;5.50;99.90
11934;DHT22;6026;48.784;9.198;2023-02-01T07:48:35;5.40;99.90
11934;DHT22;6026;48.784;9.198;2023-02-01T07:51:03;5.50;99.90
11934;DHT22;6026;48.784;9.198;2023-02-01T07:53:30;5.30;99.90
11934;DHT22;6026;48.784;9.198;2023-02-01T07:55:56;5.20;99.90
11934;DHT22;6026;48.784;9.198;2023-02-01T07:58:22;5.10;99.90
11934;DHT22;6026;48.784;9.198;2023-02-01T08:00:48;5.10;99.90
11934;DHT22;6026;48.784;9.198;2023-02-01T08:03:32;5.10;99.90
11934;DHT22;6026;48.784;9.198;2023-02-01T08:05:58;5.10;99.90
11934;DHT22;6026;48.784;9.198;2023-02-01T08:08:23;5.10;99.90
11934;DHT22;6026;48.784;9.198;2023-02-01T08:10:49;5.10;99.90
11934;DHT22;6026;48.784;9.198;2023-02-01T08:13:15;5.10;99.90
11934;DHT22;6026;48.784;9.198;2023-02-01T08:15:40;5.10;99.90
11934;DHT22;6026;48.784;9.198;2023-02-01T08:18:06;5.10;99.90
11934;DHT22;6026;48.784;9.198;2023-02-01T08:20:31;5.10;99.90
11934;DHT22;6026;48.784;9.198;2023-02-01T08:22:59;5.10;99.90
11934;DHT22;6026;48.784;9.198;2023-02-01T08:25:25;5.10;99.90
11934;DHT22;6026;48.784;9.198;2023-02-01T08:27:50;5.10;99.90
11934;DHT22;6026;48.784;9.198;2023-02-01T08:30:16;5.10;99.90
11934;DHT22;6026;48.784;9.198;2023-02-01T08:32:42;5.20;99.90
11934;DHT22;6026;48.784;9.198;2023-02-01T08:35:08;5.10;99.90
11934;DHT22;6026;48.784;9.198;2023-02-01T08:37:34;5.00;99.90
11934;DHT22;6026;48.784;9.198;2023-02-01T08:39:59;5.00;99.90
11934;DHT22;6026;48.784;9.198;2023-02-01T08:42:25;5.00;99.90
11934;DHT22;6026;48.784;9.198;2023-02-01T08:45:09;5.10;99.90
11934;DHT22;6026;48.784;9.198;2023-02-01T08:47:35;5.20;99.90
11934;DHT22;6026;48.784;9.198;2023-02-01T08:50:01;5.30;99.90
11934;DHT22;6026;48.784;9.198;2023-02-01T08:52:27;5.30;99.90
11934;DHT22;6026;48.784;9.198;2023-02-01T08:54:52;5.40;99.90
11934;DHT22;6026;48.784;9.198;2023-02-01T08:57:18;5.40;99.90
11934;DHT22;6026;48.784;9.198;2023-02-01T08:59:43;5.50;99.90
11934;DHT22;6026;48.784;9.198;2023-02-01T09:02:14;5.50;99.90
11934;DHT22;6026;48.784;9.198;2023-02-01T09:04:40;5.50;99.90
11934;DHT22;6026;48.784;9.198;2023-02-01T09:07:06;5.60;99.90
11934;DHT22;6026;48.784;9.198;2023-02-01T09:09:31;5.60;99.90
11934;DHT22;6026;48.784;9.198;2023-02-01T09:11:57;5.60;99.90
11934;DHT22;6026;48.784;9.198;2023-02-01T09:14:22;5.60;99.90
11934;DHT22;6026;48.784;9.198;2023-02-01T09:16:48;5.60;99.90
11934;DHT22;6026;48.784;9.198;2023-02-01T09:19:14;5.60;99.90
11934;DHT22;6026;48.784;9.198;2023-02-01T09:21:40;5.60;99.90
11934;DHT22;6026;48.784;9.198;2023-02-01T09:24:05;5.70;99.90
11934;DHT22;6026;48.784;9.198;2023-02-01T09:26:32;5.70;99.90
11934;DHT22;6026;48.784;9.198;2023-02-01T09:28:58;5.70;99.90
11934;DHT22;6026;48.784;9.198;2023-02-01T09:31:24;5.70;99.90
11934;DHT22;6026;48.784;9.198;2023-02-01T09:33:49;5.80;99.90
11934;DHT22;6026;48.784;9.198;2023-02-01T09:36:15;5.90;99.90
11934;DHT22;6026;48.784;9.198;2023-02-01T09:38:40;6.00;99.90
11934;DHT22;6026;48.784;9.198;2023-02-01T09:41:27;6.00;99.90
11934;DHT22;6026;48.784;9.198;2023-02-01T09:46:58;6.20;99.90
11934;DHT22;6026;48.784;9.198;2023-02-01T09:49:30;6.30;99.90
11934;DHT22;6026;48.784;9.198;2023-02-01T09:51:56;6.30;99.90
11934;DHT22;6026;48.784;9.198;2023-02-01T09:54:42;6.40;99.90
11934;DHT22;6026;48.784;9.198;2023-02-01T09:57:19;6.50;99.90
11934;DHT22;6026;48.784;9.198;2023-02-01T10:00:00;6.50;99.90
11934;DHT22;6026;48.784;9.198;2023-02-01T10:02:28;6.50;99.90
11934;DHT22;6026;48.784;9.198;2023-02-01T10:04:58;6.50;99.90
11934;DHT22;6026;48.784;9.198;2023-02-01T10:18:01;6.50;99.90
11934;DHT22;6026;48.784;9.198;2023-02-01T10:26:17;6.50;99.90
11934;DHT22;6026;48.784;9.198;2023-02-01T10:28:45;6.60;99.90
11934;DHT22;6026;48.784;9.198;2023-02-01T10:31:13;6.60;99.90
11934;DHT22;6026;48.784;9.198;2023-02-01T10:33:45;6.70;99.90
11934;DHT22;6026;48.784;9.198;2023-02-01T10:36:21;6.70;99.90
11934;DHT22;6026;48.784;9.198;2023-02-01T10:38:49;6.80;99.90
11934;DHT22;6026;48.784;9.198;2023-02-01T10:41:17;6.80;99.90
11934;DHT22;6026;48.784;9.198;2023-02-01T10:43:48;6.80;99.90
11934;DHT22;6026;48.784;9.198;2023-02-01T10:46:13;6.90;99.90
11934;DHT22;6026;48.784;9.198;2023-02-01T10:48:39;6.80;99.90
11934;DHT22;6026;48.784;9.198;2023-02-01T10:51:14;6.90;99.90
11934;DHT22;6026;48.784;9.198;2023-02-01T10:53:55;6.90;99.90
11934;DHT22;6026;48.784;9.198;2023-02-01T10:56:24;6.90;99.90
11934;DHT22;6026;48.784;9.198;2023-02-01T10:58:50;7.00;99.90
11934;DHT22;6026;48.784;9.198;2023-02-01T11:01:28;7.00;99.90
11934;DHT22;6026;48.784;9.198;2023-02-01T11:04:03;6.90;99.90
11934;DHT22;6026;48.784;9.198;2023-02-01T11:06:38;6.90;99.90
11934;DHT22;6026;48.784;9.198;2023-02-01T11:14:30;6.90;99.90
11934;DHT22;6026;48.784;9.198;2023-02-01T11:17:23;6.80;99.90
11934;DHT22;6026;48.784;9.198;2023-02-01T11:19:46;6.90;99.90
11934;DHT22;6026;48.784;9.198;2023-02-01T11:22:13;6.90;99.90
11934;DHT22;6026;48.784;9.198;2023-02-01T11:24:40;6.90;99.90
11934;DHT22;6026;48.784;9.198;2023-02-01T11:27:16;6.90;99.90
11934;DHT22;6026;48.784;9.198;2023-02-01T11:29:45;6.80;99.90
11934;DHT22;6026;48.784;9.198;2023-02-01T11:32:13;6.80;99.90
11934;DHT22;6026;48.784;9.198;2023-02-01T11:34:45;6.70;99.90
11934;DHT22;6026;48.784;9.198;2023-02-01T11:40:01;6.80;99.90
11934;DHT22;6026;48.784;9.198;2023-02-01T11:42:29;6.80;99.90
11934;DHT22;6026;48.784;9.198;2023-02-01T11:47:42;6.80;99.90
11934;DHT22;6026;48.784;9.198;2023-02-01T11:50:17;6.90;99.90
11934;DHT22;6026;48.784;9.198;2023-02-01T11:58:37;6.80;99.90
11934;DHT22;6026;48.784;9.198;2023-02-01T12:01:19;6.80;99.90
11934;DHT22;6026;48.784;9.198;2023-02-01T12:12:19;7.00;99.90
11934;DHT22;6026;48.784;9.198;2023-02-01T12:20:21;6.90;99.90
11934;DHT22;6026;48.784;9.198;2023-02-01T12:23:01;6.80;99.90
11934;DHT22;6026;48.784;9.198;2023-02-01T12:25:57;6.80;99.90
11934;DHT22;6026;48.784;9.198;2023-02-01T12:28:41;6.80;99.90
11934;DHT22;6026;48.784;9.198;2023-02-01T12:31:36;6.80;99.90
11934;DHT22;6026;48.784;9.198;2023-02-01T12:34:17;6.80;99.90
11934;DHT22;6026;48.784;9.198;2023-02-01T12:42:43;6.70;99.90
11934;DHT22;6026;48.784;9.198;2023-02-01T12:45:29;6.60;99.90
11934;DHT22;6026;48.784;9.198;2023-02-01T12:48:02;6.60;99.90
11934;DHT22;6026;48.784;9.198;2023-02-01T12:51:26;6.60;99.90
11934;DHT22;6026;48.784;9.198;2023-02-01T12:54:21;6.60;99.90
11934;DHT22;6026;48.784;9.198;2023-02-01T12:56:48;6.60;99.90
11934;DHT22;6026;48.784;9.198;2023-02-01T12:59:40;6.50;99.90
11934;DHT22;6026;48.784;9.198;2023-02-01T13:05:34;6.50;99.90
11934;DHT22;6026;48.784;9.198;2023-02-01T13:08:11;6.40;99.90
11934;DHT22;6026;48.784;9.198;2023-02-01T13:10:55;6.30;99.90
11934;DHT22;6026;48.784;9.198;2023-02-01T13:13:31;6.30;99.90
11934;DHT22;6026;48.784;9.198;2023-02-01T13:16:17;6.20;99.90
11934;DHT22;6026;48.784;9.198;2023-02-01T13:18:49;6.20;99.90
11934;DHT22;6026;48.784;9.198;2023-02-01T13:21:23;6.30;99.90
11934;DHT22;6026;48.784;9.198;2023-02-01T13:23:50;6.30;99.90
11934;DHT22;6026;48.784;9.198;2023-02-01T13:26:17;6.30;99.90
11934;DHT22;6026;48.784;9.198;2023-02-01T13:28:47;6.40;99.90
11934;DHT22;6026;48.784;9.198;2023-02-01T13:39:51;6.40;99.90
11934;DHT22;6026;48.784;9.198;2023-02-01T13:42:34;6.40;99.90
11934;DHT22;6026;48.784;9.198;2023-02-01T13:45:05;6.40;99.90
11934;DHT22;6026;48.784;9.198;2023-02-01T13:47:43;6.50;99.90
11934;DHT22;6026;48.784;9.198;2023-02-01T13:50:18;6.40;99.90
11934;DHT22;6026;48.784;9.198;2023-02-01T13:52:55;6.40;99.90
11934;DHT22;6026;48.784;9.198;2023-02-01T13:57:49;6.30;99.90
11934;DHT22;6026;48.784;9.198;2023-02-01T14:00:31;6.20;99.90
11934;DHT22;6026;48.784;9.198;2023-02-01T14:10:49;6.10;99.90
11934;DHT22;6026;48.784;9.198;2023-02-01T14:13:29;6.10;99.90
11934;DHT22;6026;48.784;9.198;2023-02-01T14:21:29;6.20;99.90
11934;DHT22;6026;48.784;9.198;2023-02-01T14:24:21;6.20;99.90
11934;DHT22;6026;48.784;9.198;2023-02-01T14:26:46;6.20;99.90
11934;DHT22;6026;48.784;9.198;2023-02-01T14:34:34;6.30;99.90
11934;DHT22;6026;48.784;9.198;2023-02-01T14:37:06;6.30;99.90
11934;DHT22;6026;48.784;9.198;2023-02-01T14:47:54;6.30;99.90
11934;DHT22;6026;48.784;9.198;2023-02-01T15:00:58;6.20;99.90
11934;DHT22;6026;48.784;9.198;2023-02-01T15:03:47;6.20;99.90
11934;DHT22;6026;48.784;9.198;2023-02-01T15:09:34;6.20;99.90
11934;DHT22;6026;48.784;9.198;2023-02-01T15:14:36;6.20;99.90
11934;DHT22;6026;48.784;9.198;2023-02-01T15:17:02;6.20;99.90
11934;DHT22;6026;48.784;9.198;2023-02-01T15:19:29;6.20;99.90
11934;DHT22;6026;48.784;9.198;2023-02-01T15:21:58;6.20;99.90
11934;DHT22;6026;48.784;9.198;2023-02-01T15:24:30;6.20;99.90
11934;DHT22;6026;48.784;9.198;2023-02-01T15:27:03;6.20;99.90
11934;DHT22;6026;48.784;9.198;2023-02-01T15:29:29;6.10;99.90
11934;DHT22;6026;48.784;9.198;2023-02-01T15:31:58;6.20;99.90
11934;DHT22;6026;48.784;9.198;2023-02-01T15:34:44;6.10;99.90
11934;DHT22;6026;48.784;9.198;2023-02-01T15:37:16;6.10;99.90
11934;DHT22;6026;48.784;9.198;2023-02-01T15:42:29;6.10;99.90
11934;DHT22;6026;48.784;9.198;2023-02-01T15:44:54;6.10;99.90
11934;DHT22;6026;48.784;9.198;2023-02-01T15:47:25;6.20;99.90
11934;DHT22;6026;48.784;9.198;2023-02-01T15:49:55;6.20;99.90
11934;DHT22;6026;48.784;9.198;2023-02-01T15:52:42;6.10;99.90
11934;DHT22;6026;48.784;9.198;2023-02-01T15:55:18;6.20;99.90
11934;DHT22;6026;48.784;9.198;2023-02-01T15:57:45;6.20;99.90
11934;DHT22;6026;48.784;9.198;2023-02-01T16:00:28;6.20;99.90
11934;DHT22;6026;48.784;9.198;2023-02-01T16:02:58;6.10;99.90
11934;DHT22;6026;48.784;9.198;2023-02-01T16:05:40;6.10;99.90
11934;DHT22;6026;48.784;9.198;2023-02-01T16:08:20;6.10;99.90
11934;DHT22;6026;48.784;9.198;2023-02-01T16:10:48;6.10;99.90
11934;DHT22;6026;48.784;9.198;2023-02-01T16:13:15;6.10;99.90
11934;DHT22;6026;48.784;9.198;2023-02-01T16:15:41;6.10;99.90
11934;DHT22;6026;48.784;9.198;2023-02-01T16:18:07;6.10;99.90
11934;DHT22;6026;48.784;9.198;2023-02-01T16:20:34;6.20;99.90
11934;DHT22;6026;48.784;9.198;2023-02-01T16:23:01;6.20;99.90
11934;DHT22;6026;48.784;9.198;2023-02-01T16:25:27;6.20;99.90
11934;DHT22;6026;48.784;9.198;2023-02-01T16:27:53;6.20;99.90
11934;DHT22;6026;48.784;9.198;2023-02-01T16:30:19;6.20;99.90
11934;DHT22;6026;48.784;9.198;2023-02-01T16:32:49;6.20;99.90
11934;DHT22;6026;48.784;9.198;2023-02-01T16:35:23;6.20;99.90
11934;DHT22;6026;48.784;9.198;2023-02-01T16:37:49;6.20;99.90
11934;DHT22;6026;48.784;9.198;2023-02-01T16:40:16;6.20;99.90
11934;DHT22;6026;48.784;9.198;2023-02-01T16:42:42;6.20;99.90
11934;DHT22;6026;48.784;9.198;2023-02-01T16:45:08;6.20;99.90
11934;DHT22;6026;48.784;9.198;2023-02-01T16:47:37;6.20;99.90
11934;DHT22;6026;48.784;9.198;2023-02-01T16:50:03;6.20;99.90
11934;DHT22;6026;48.784;9.198;2023-02-01T16:52:29;6.20;99.90
11934;DHT22;6026;48.784;9.198;2023-02-01T16:54:55;6.10;99.90
11934;DHT22;6026;48.784;9.198;2023-02-01T16:57:21;6.20;99.90
11934;DHT22;6026;48.784;9.198;2023-02-01T16:59:51;6.20;99.90
11934;DHT22;6026;48.784;9.198;2023-02-01T17:02:18;6.20;99.90
11934;DHT22;6026;48.784;9.198;2023-02-01T17:04:48;6.10;99.90
11934;DHT22;6026;48.784;9.198;2023-02-01T17:07:17;6.10;99.90
11934;DHT22;6026;48.784;9.198;2023-02-01T17:09:44;6.10;99.90
11934;DHT22;6026;48.784;9.198;2023-02-01T17:12:28;6.10;99.90
11934;DHT22;6026;48.784;9.198;2023-02-01T17:14:55;6.10;99.90
11934;DHT22;6026;48.784;9.198;2023-02-01T17:17:21;6.10;99.90
11934;DHT22;6026;48.784;9.198;2023-02-01T17:19:51;6.00;99.90
11934;DHT22;6026;48.784;9.198;2023-02-01T17:22:22;6.00;99.90
11934;DHT22;6026;48.784;9.198;2023-02-01T17:24:49;6.00;99.90
11934;DHT22;6026;48.784;9.198;2023-02-01T17:27:15;6.10;99.90
11934;DHT22;6026;48.784;9.198;2023-02-01T17:29:41;6.00;99.90
11934;DHT22;6026;48.784;9.198;2023-02-01T17:32:20;6.00;99.90
11934;DHT22;6026;48.784;9.198;2023-02-01T17:34:47;6.00;99.90
11934;DHT22;6026;48.784;9.198;2023-02-01T17:37:33;6.00;99.90
11934;DHT22;6026;48.784;9.198;2023-02-01T17:39:59;6.10;99.90
11934;DHT22;6026;48.784;9.198;2023-02-01T17:42:26;6.10;99.90
11934;DHT22;6026;48.784;9.198;2023-02-01T17:44:55;6.00;99.90
11934;DHT22;6026;48.784;9.198;2023-02-01T17:47:22;6.00;99.90
11934;DHT22;6026;48.784;9.198;2023-02-01T17:49:47;6.00;99.90
11934;DHT22;6026;48.784;9.198;2023-02-01T17:52:17;6.00;99.90
11934;DHT22;6026;48.784;9.198;2023-02-01T17:54:43;5.90;99.90
11934;DHT22;6026;48.784;9.198;2023-02-01T17:57:12;6.00;99.90
11934;DHT22;6026;48.784;9.198;2023-02-01T17:59:38;6.00;99.90
11934;DHT22;6026;48.784;9.198;2023-02-01T18:02:17;6.00;99.90
11934;DHT22;6026;48.784;9.198;2023-02-01T18:04:43;6.00;99.90
11934;DHT22;6026;48.784;9.198;2023-02-01T18:07:08;6.00;99.90
11934;DHT22;6026;48.784;9.198;2023-02-01T18:09:34;6.00;99.90
11934;DHT22;6026;48.784;9.198;2023-02-01T18:12:00;5.90;99.90
11934;DHT22;6026;48.784;9.198;2023-02-01T18:14:26;5.90;99.90
11934;DHT22;6026;48.784;9.198;2023-02-01T18:16:52;5.90;99.90
11934;DHT22;6026;48.784;9.198;2023-02-01T18:19:17;5.90;99.90
11934;DHT22;6026;48.784;9.198;2023-02-01T18:21:43;5.90;99.90
11934;DHT22;6026;48.784;9.198;2023-02-01T18:24:12;5.90;99.90
11934;DHT22;6026;48.784;9.198;2023-02-01T18:26:38;5.90;99.90
11934;DHT22;6026;48.784;9.198;2023-02-01T18:29:03;6.00;99.90
11934;DHT22;6026;48.784;9.198;2023-02-01T18:31:30;6.00;99.90
11934;DHT22;6026;48.784;9.198;2023-02-01T18:33:57;6.00;99.90
11934;DHT22;6026;48.784;9.198;2023-02-01T18:36:24;6.00;99.90
11934;DHT22;6026;48.784;9.198;2023-02-01T18:38:50;6.00;99.90
11934;DHT22;6026;48.784;9.198;2023-02-01T18:41:19;6.00;99.90